Nearby METAR Reports

 

KLEX - Lexington, Kentucky, USA
Distance from station: WNW 7mi, 11km
Updated: Sun, 21-Oct-2018 7:54pm EDT
Clear
Clear
 Wind from S
Wind: S 3 mph , 6 km/h
Temperature: 45°F , 7°C
Dew Point: 34°F , 1°C
Humidity: 66%
Barometer: 30.28 inHg , 1025.4 hPa
Clouds: Clear
Visibility: 10 miles , 16 km
2018/10/21 23:54 KLEX 212354Z 19003KT 10SM CLR 07/01 A3028 RMK AO2 SLP261 T00670006 10111 20067 51000
KFFT - Frankfort, Kentucky, USA
Distance from station: WNW 26mi, 42km
Updated: Sun, 21-Oct-2018 7:53pm EDT
Clear
Clear
 Wind from calm
Wind: Calm
Temperature: 41°F , 5°C
Dew Point: 34°F , 1°C
Humidity: 76%
Barometer: 30.27 inHg , 1025.1 hPa
Clouds: Clear
Visibility: 10 miles , 16 km
2018/10/21 23:53 KFFT 212353Z AUTO 00000KT 10SM CLR 05/01 A3027 RMK AO2 SLP257 T00500006 10122 20044 58000
 
KIOB - Mount Sterling, Kentucky, USA
Distance from station: E 27mi, 44km
Updated: Sun, 21-Oct-2018 8:35pm EDT
Clear
Clear
 Wind from calm
Wind: Calm
Temperature: 37°F , 3°C
Dew Point: 34°F , 1°C
Humidity: 87%
Barometer: 30.30 inHg , 1026.1 hPa
Clouds: Clear
Visibility: 10 miles , 16 km
2018/10/22 00:35 KIOB 220035Z AUTO 00000KT 10SM CLR 03/01 A3030 RMK AO2
KDVK - Danville, Kentucky, USA
Distance from station: SSW 33mi, 53km
Updated: Sun, 21-Oct-2018 8:35pm EDT
Clear
Clear
 Wind from calm
Wind: Calm
Temperature: 37°F , 3°C
Dew Point: 34°F , 1°C
Humidity: 87%
Barometer: 30.30 inHg , 1026.1 hPa
Clouds: Clear
Visibility: 10 miles , 16 km
2018/10/22 00:35 KDVK 220035Z AUTO 00000KT 10SM CLR 03/01 A3030 RMK AO2